createdAt,value
2019-03-31T00:04:17.572Z,10.67
2019-03-31T00:09:13.717Z,10.50
2019-03-31T00:14:10.900Z,10.90
2019-03-31T00:19:07.044Z,9.40
2019-03-31T00:24:03.314Z,9.37
2019-03-31T00:28:59.490Z,9.83
2019-03-31T00:33:55.610Z,9.57
2019-03-31T00:38:51.736Z,9.57
2019-03-31T00:43:47.835Z,9.90
2019-03-31T00:48:44.320Z,9.90
2019-03-31T00:53:40.547Z,10.37
2019-03-31T00:58:37.796Z,9.10
2019-03-31T01:03:35.227Z,9.00
2019-03-31T01:08:34.311Z,9.03
2019-03-31T01:13:30.427Z,9.97
2019-03-31T01:18:26.912Z,9.37
2019-03-31T01:23:23.199Z,9.67
2019-03-31T01:28:20.405Z,9.40
2019-03-31T01:33:16.933Z,9.63
2019-03-31T01:38:13.353Z,8.83
2019-03-31T01:43:09.876Z,9.17
2019-03-31T01:48:06.253Z,9.40
2019-03-31T01:53:02.462Z,9.13
2019-03-31T01:57:58.996Z,9.00
2019-03-31T02:02:55.398Z,8.87
2019-03-31T02:07:51.700Z,9.00
2019-03-31T02:12:47.824Z,8.37
2019-03-31T02:17:44.044Z,8.60
2019-03-31T02:22:40.268Z,9.30
2019-03-31T02:27:36.628Z,9.13
2019-03-31T02:32:32.783Z,9.77
2019-03-31T02:37:29.013Z,9.73
2019-03-31T02:42:25.265Z,8.83
2019-03-31T02:47:21.493Z,9.93
2019-03-31T02:52:17.560Z,9.70
2019-03-31T02:57:14.000Z,9.93
2019-03-31T03:02:11.406Z,8.87
2019-03-31T03:07:10.561Z,9.00
2019-03-31T03:12:09.364Z,9.27
2019-03-31T03:17:05.524Z,8.50
2019-03-31T03:22:01.676Z,8.90
2019-03-31T03:26:57.941Z,8.43
2019-03-31T03:31:54.176Z,8.57
2019-03-31T03:36:50.303Z,8.47
2019-03-31T03:41:46.468Z,8.33
2019-03-31T03:46:42.558Z,8.20
2019-03-31T03:51:38.717Z,8.77
2019-03-31T03:56:34.914Z,8.07
2019-03-31T04:01:32.636Z,8.00
2019-03-31T04:06:28.992Z,7.73
2019-03-31T04:11:27.831Z,8.40
2019-03-31T04:16:24.324Z,8.07
2019-03-31T04:21:20.391Z,7.90
2019-03-31T04:26:16.506Z,8.10
2019-03-31T04:31:12.742Z,8.60
2019-03-31T04:36:08.953Z,8.43
2019-03-31T04:41:05.179Z,8.27
2019-03-31T04:46:01.456Z,7.93
2019-03-31T04:50:57.664Z,9.13
2019-03-31T04:55:53.823Z,9.40
2019-03-31T05:00:50.154Z,9.33
2019-03-31T05:05:46.357Z,7.70
2019-03-31T05:10:42.487Z,9.23
2019-03-31T05:15:38.682Z,8.57
2019-03-31T05:20:34.788Z,9.53
2019-03-31T05:25:31.105Z,10.07
2019-03-31T05:30:27.268Z,9.33
2019-03-31T05:35:26.827Z,9.67
2019-03-31T05:40:21.143Z,10.43
2019-03-31T05:45:17.178Z,11.03
2019-03-31T05:50:13.507Z,11.43
2019-03-31T05:55:09.697Z,11.13
2019-03-31T06:00:07.321Z,10.93
2019-03-31T06:05:03.596Z,11.67
2019-03-31T06:09:59.859Z,10.23
2019-03-31T06:14:56.039Z,10.67
2019-03-31T06:19:52.538Z,10.73
2019-03-31T06:24:48.790Z,10.13
2019-03-31T06:29:45.119Z,10.63
2019-03-31T06:34:47.794Z,10.40
2019-03-31T06:39:39.447Z,9.33
2019-03-31T06:44:38.102Z,9.70
2019-03-31T06:49:33.686Z,9.93
2019-03-31T06:54:30.918Z,11.03
2019-03-31T06:59:27.292Z,19.80
2019-03-31T07:04:23.662Z,11.77
2019-03-31T07:09:20.104Z,19.97
2019-03-31T07:14:16.319Z,12.67
2019-03-31T07:19:12.491Z,12.13
2019-03-31T07:24:10.554Z,13.77
2019-03-31T07:29:07.195Z,9.73
2019-03-31T07:34:03.406Z,9.40
2019-03-31T07:38:59.635Z,30.63
2019-03-31T07:43:55.816Z,20.33
2019-03-31T07:48:52.004Z,17.10
2019-03-31T07:53:48.228Z,8.67
2019-03-31T07:58:44.443Z,27.10
2019-03-31T08:03:40.888Z,12.00
2019-03-31T08:08:37.128Z,7.93
2019-03-31T08:13:33.322Z,7.20
2019-03-31T08:18:29.554Z,6.57
2019-03-31T08:23:25.872Z,5.90
2019-03-31T08:28:22.035Z,8.20
2019-03-31T08:33:18.349Z,6.63
2019-03-31T08:38:16.817Z,7.50
2019-03-31T08:43:12.982Z,8.27
2019-03-31T08:48:09.310Z,7.57
2019-03-31T08:53:05.598Z,7.83
2019-03-31T08:58:01.864Z,9.23
2019-03-31T09:02:58.083Z,9.87
2019-03-31T09:07:54.363Z,9.63
2019-03-31T09:12:51.186Z,9.47
2019-03-31T09:17:47.658Z,10.13
2019-03-31T09:22:43.895Z,9.60
2019-03-31T09:27:40.203Z,9.40
2019-03-31T09:32:36.505Z,9.37
2019-03-31T09:37:32.705Z,8.57
2019-03-31T09:42:28.880Z,10.40
2019-03-31T09:47:25.275Z,9.23
2019-03-31T09:52:21.563Z,9.13
2019-03-31T09:57:17.817Z,9.30
2019-03-31T10:02:14.105Z,9.73
2019-03-31T10:07:10.537Z,9.03
2019-03-31T10:12:06.997Z,9.30
2019-03-31T10:17:03.258Z,9.43
2019-03-31T10:22:01.979Z,10.90
2019-03-31T10:26:58.376Z,9.67
2019-03-31T10:31:54.619Z,9.00
2019-03-31T10:36:52.284Z,9.90
2019-03-31T10:41:49.199Z,8.90
2019-03-31T10:46:45.446Z,8.93
2019-03-31T10:51:42.642Z,9.40
2019-03-31T10:56:38.899Z,9.67
2019-03-31T11:01:36.317Z,9.67
2019-03-31T11:06:58.263Z,9.57
2019-03-31T11:11:43.601Z,9.63
2019-03-31T11:16:39.864Z,10.60
2019-03-31T11:21:41.981Z,10.07
2019-03-31T11:26:38.278Z,9.67
2019-03-31T11:31:34.676Z,10.00
2019-03-31T11:36:33.087Z,9.43
2019-03-31T11:41:29.268Z,9.40
2019-03-31T11:46:25.512Z,9.60
2019-03-31T11:51:21.788Z,8.87
2019-03-31T11:56:23.503Z,9.17
2019-03-31T12:01:19.720Z,9.13
2019-03-31T12:06:16.376Z,8.83
2019-03-31T12:11:12.641Z,8.70
2019-03-31T12:16:10.503Z,9.53
2019-03-31T12:21:09.494Z,8.57
2019-03-31T12:26:05.938Z,8.87
2019-03-31T12:31:02.177Z,9.33
2019-03-31T12:35:58.462Z,8.80
2019-03-31T12:40:54.948Z,8.27
2019-03-31T12:45:51.176Z,8.70
2019-03-31T12:50:48.584Z,7.90
2019-03-31T12:55:59.103Z,8.50
2019-03-31T13:00:42.683Z,7.80
2019-03-31T13:05:38.911Z,7.50
2019-03-31T13:10:35.202Z,8.10
2019-03-31T13:15:31.454Z,8.00
2019-03-31T13:20:27.692Z,8.90
2019-03-31T13:25:23.910Z,8.10
2019-03-31T13:30:22.045Z,9.35
2019-03-31T13:35:18.696Z,8.93
2019-03-31T13:40:15.352Z,7.08
2019-03-31T13:45:12.274Z,8.18
2019-03-31T13:50:09.480Z,8.23
2019-03-31T13:55:06.055Z,7.80
2019-03-31T14:00:02.401Z,8.58
2019-03-31T14:05:00.737Z,8.05
2019-03-31T14:09:56.973Z,7.72
2019-03-31T14:14:53.519Z,7.33
2019-03-31T14:19:49.711Z,7.00
2019-03-31T14:24:45.912Z,6.60
2019-03-31T14:29:42.671Z,7.45
2019-03-31T14:34:39.057Z,6.55
2019-03-31T14:39:35.316Z,6.65
2019-03-31T14:44:32.045Z,5.70
2019-03-31T14:49:28.273Z,6.03
2019-03-31T14:54:24.537Z,6.40
2019-03-31T14:59:20.751Z,6.40
2019-03-31T15:04:16.974Z,6.35
2019-03-31T15:09:13.217Z,6.08
2019-03-31T15:14:09.429Z,6.17
2019-03-31T15:19:05.981Z,6.67
2019-03-31T15:24:03.399Z,6.53
2019-03-31T15:28:59.617Z,6.42
2019-03-31T15:33:55.850Z,6.00
2019-03-31T15:38:52.047Z,5.97
2019-03-31T15:43:48.270Z,6.37
2019-03-31T15:48:44.500Z,5.67
2019-03-31T15:53:40.708Z,6.35
2019-03-31T15:58:36.964Z,6.30
2019-03-31T16:03:35.076Z,5.40
2019-03-31T16:08:30.718Z,5.60
2019-03-31T16:13:26.420Z,5.60
2019-03-31T16:18:22.160Z,5.55
2019-03-31T16:23:17.813Z,5.00
2019-03-31T16:28:13.514Z,5.53
2019-03-31T16:33:09.259Z,5.17
2019-03-31T16:38:05.003Z,7.67
2019-03-31T16:43:01.696Z,8.27
2019-03-31T16:47:58.413Z,6.80
2019-03-31T16:52:54.148Z,7.73
2019-03-31T16:57:49.920Z,8.70
2019-03-31T17:02:45.668Z,11.00
2019-03-31T17:07:42.042Z,7.17
2019-03-31T17:12:37.757Z,5.20
2019-03-31T17:17:33.498Z,5.50
2019-03-31T17:22:30.232Z,5.40
2019-03-31T17:27:25.946Z,5.70
2019-03-31T17:32:21.653Z,6.17
2019-03-31T17:37:17.416Z,6.57
2019-03-31T17:42:13.147Z,6.40
2019-03-31T17:47:08.905Z,7.37
2019-03-31T17:52:05.015Z,7.10
2019-03-31T17:57:00.705Z,7.47
2019-03-31T18:01:56.438Z,6.97
2019-03-31T18:06:52.127Z,7.93
2019-03-31T18:11:47.871Z,8.30
2019-03-31T18:16:43.570Z,10.97
2019-03-31T18:21:39.246Z,12.00
2019-03-31T18:26:35.861Z,11.50
2019-03-31T18:31:31.550Z,12.93
2019-03-31T18:36:36.544Z,12.13
2019-03-31T18:41:24.664Z,12.80
2019-03-31T18:46:20.462Z,15.17
2019-03-31T18:51:16.189Z,14.10
2019-03-31T18:56:22.767Z,12.67
2019-03-31T19:01:33.296Z,10.50
2019-03-31T19:06:37.932Z,10.97
2019-03-31T19:12:01.438Z,9.73
2019-03-31T19:17:34.239Z,12.00
2019-03-31T19:23:04.202Z,14.67
2019-03-31T19:28:33.548Z,14.23
2019-03-31T19:33:47.094Z,14.33
2019-03-31T19:39:07.933Z,12.00
2019-03-31T19:44:14.042Z,11.00
2019-03-31T19:49:27.619Z,9.57
2019-03-31T19:54:48.255Z,11.33
2019-03-31T20:00:06.801Z,11.33
2019-03-31T20:05:27.698Z,11.17
2019-03-31T20:11:00.664Z,11.97
2019-03-31T20:16:15.321Z,12.17
2019-03-31T20:21:32.797Z,14.10
2019-03-31T20:26:56.122Z,13.87
2019-03-31T20:32:05.426Z,10.37
2019-03-31T20:37:32.236Z,12.63
2019-03-31T20:42:41.377Z,11.00
2019-03-31T20:47:37.113Z,9.03
2019-03-31T20:52:32.789Z,10.83
2019-03-31T20:57:28.472Z,11.63
2019-03-31T21:02:24.127Z,11.83
2019-03-31T21:07:19.928Z,12.97
2019-03-31T21:12:15.498Z,10.80
2019-03-31T21:17:11.164Z,11.83
2019-03-31T21:22:06.915Z,10.10
2019-03-31T21:27:02.890Z,10.20
2019-03-31T21:31:58.609Z,10.30
2019-03-31T21:36:54.266Z,9.37
2019-03-31T21:41:49.944Z,10.77
2019-03-31T21:46:46.757Z,10.87
2019-03-31T21:51:42.434Z,10.03
2019-03-31T21:56:39.658Z,11.90
2019-03-31T22:01:35.344Z,12.43
2019-03-31T22:06:31.047Z,12.43
2019-03-31T22:11:26.821Z,12.30
2019-03-31T22:16:22.544Z,11.73
2019-03-31T22:21:18.221Z,8.97
2019-03-31T22:26:13.876Z,10.27
2019-03-31T22:31:09.582Z,8.60
2019-03-31T22:36:23.833Z,8.20
2019-03-31T22:41:19.632Z,8.53
2019-03-31T22:46:15.300Z,7.70
2019-03-31T22:51:11.061Z,7.97
2019-03-31T22:56:06.722Z,8.43
2019-03-31T23:01:02.801Z,8.13
2019-03-31T23:05:58.659Z,8.37
2019-03-31T23:10:54.333Z,7.50
2019-03-31T23:15:50.087Z,7.33
2019-03-31T23:20:45.745Z,7.17
2019-03-31T23:25:41.420Z,7.57
2019-03-31T23:30:37.136Z,7.73
2019-03-31T23:35:32.812Z,7.47
2019-03-31T23:40:28.496Z,7.17
2019-03-31T23:45:24.148Z,6.93
2019-03-31T23:50:19.800Z,7.47
2019-03-31T23:55:15.456Z,7.37
